createdAt,value
2022-09-03T00:01:56.212Z,1.80
2022-09-03T00:04:27.458Z,1.95
2022-09-03T00:07:00.068Z,1.67
2022-09-03T00:09:31.769Z,1.83
2022-09-03T00:12:04.552Z,2.13
2022-09-03T00:14:36.216Z,1.80
2022-09-03T00:17:09.099Z,1.90
2022-09-03T00:19:41.544Z,2.03
2022-09-03T00:22:12.235Z,1.88
2022-09-03T00:24:42.592Z,1.70
2022-09-03T00:27:14.633Z,1.70
2022-09-03T00:29:45.493Z,1.80
2022-09-03T00:32:18.134Z,1.80
2022-09-03T00:34:50.560Z,1.73
2022-09-03T00:37:18.943Z,1.60
2022-09-03T00:39:47.300Z,1.85
2022-09-03T00:42:27.945Z,1.60
2022-09-03T00:45:01.454Z,1.73
2022-09-03T00:47:33.707Z,1.73
2022-09-03T00:50:09.316Z,1.80
2022-09-03T00:52:46.468Z,1.55
2022-09-03T00:55:19.060Z,1.83
2022-09-03T00:57:52.225Z,1.75
2022-09-03T01:00:21.299Z,1.80
2022-09-03T01:02:57.743Z,1.63
2022-09-03T01:05:35.724Z,1.92
2022-09-03T01:08:11.819Z,1.40
2022-09-03T01:10:44.831Z,1.65
2022-09-03T01:13:16.240Z,1.63
2022-09-03T01:15:50.393Z,1.73
2022-09-03T01:18:25.750Z,1.83
2022-09-03T01:21:00.936Z,1.55
2022-09-03T01:23:43.570Z,1.67
2022-09-03T01:26:29.910Z,1.80
2022-09-03T01:29:05.636Z,1.80
2022-09-03T01:31:38.598Z,1.58
2022-09-03T01:34:12.059Z,1.75
2022-09-03T01:36:46.424Z,1.75
2022-09-03T01:39:18.196Z,1.88
2022-09-03T01:42:07.646Z,1.70
2022-09-03T01:44:44.613Z,1.80
2022-09-03T01:47:19.328Z,1.77
2022-09-03T01:49:53.144Z,2.03
2022-09-03T01:52:26.671Z,1.95
2022-09-03T01:55:00.253Z,2.00
2022-09-03T01:57:42.824Z,2.20
2022-09-03T02:00:13.994Z,1.98
2022-09-03T02:02:43.460Z,2.50
2022-09-03T02:05:14.364Z,3.50
2022-09-03T02:07:43.864Z,2.42
2022-09-03T02:10:14.264Z,2.60
2022-09-03T02:12:44.208Z,2.75
2022-09-03T02:15:16.135Z,2.60
2022-09-03T02:17:45.149Z,2.35
2022-09-03T02:20:14.475Z,2.72
2022-09-03T02:22:43.680Z,2.60
2022-09-03T02:25:12.077Z,2.63
2022-09-03T02:27:40.731Z,2.40
2022-09-03T02:30:10.001Z,2.60
2022-09-03T02:32:39.747Z,2.20
2022-09-03T02:35:08.558Z,1.85
2022-09-03T02:37:37.004Z,2.42
2022-09-03T02:40:06.805Z,2.08
2022-09-03T02:42:35.268Z,2.28
2022-09-03T02:45:09.555Z,2.17
2022-09-03T02:47:39.089Z,2.00
2022-09-03T02:50:09.323Z,2.35
2022-09-03T02:52:37.697Z,2.13
2022-09-03T02:55:07.584Z,2.13
2022-09-03T02:57:35.958Z,2.40
2022-09-03T03:00:04.762Z,2.30
2022-09-03T03:02:33.315Z,1.80
2022-09-03T03:05:01.754Z,2.15
2022-09-03T03:07:33.962Z,2.05
2022-09-03T03:10:02.337Z,1.80
2022-09-03T03:12:31.389Z,1.95
2022-09-03T03:14:59.765Z,2.13
2022-09-03T03:17:28.821Z,2.05
2022-09-03T03:19:57.346Z,2.03
2022-09-03T03:22:25.680Z,2.20
2022-09-03T03:24:57.009Z,2.22
2022-09-03T03:27:25.965Z,2.00
2022-09-03T03:29:54.854Z,2.28
2022-09-03T03:32:23.213Z,2.08
2022-09-03T03:34:51.618Z,2.05
2022-09-03T03:37:19.996Z,1.98
2022-09-03T03:39:48.409Z,2.20
2022-09-03T03:42:18.180Z,2.08
2022-09-03T03:44:46.507Z,1.98
2022-09-03T03:47:16.953Z,2.22
2022-09-03T03:49:45.340Z,2.40
2022-09-03T03:52:13.727Z,2.17
2022-09-03T03:54:42.044Z,1.98
2022-09-03T03:57:10.437Z,2.10
2022-09-03T03:59:40.132Z,2.20
2022-09-03T04:02:08.566Z,2.35
2022-09-03T04:04:36.945Z,2.28
2022-09-03T04:07:05.664Z,1.95
2022-09-03T04:09:34.187Z,2.10
2022-09-03T04:12:03.602Z,2.33
2022-09-03T04:14:31.968Z,1.85
2022-09-03T04:17:03.047Z,1.98
2022-09-03T04:19:31.680Z,1.83
2022-09-03T04:21:59.996Z,2.40
2022-09-03T04:24:28.692Z,2.20
2022-09-03T04:26:57.088Z,2.22
2022-09-03T04:29:25.461Z,1.85
2022-09-03T04:32:11.519Z,2.30
2022-09-03T04:34:41.292Z,2.67
2022-09-03T04:37:10.746Z,2.60
2022-09-03T04:39:39.208Z,2.35
2022-09-03T04:42:07.909Z,2.45
2022-09-03T04:44:38.421Z,2.25
2022-09-03T04:47:06.985Z,2.33
2022-09-03T04:49:35.683Z,2.80
2022-09-03T04:52:05.571Z,2.05
2022-09-03T04:54:33.904Z,2.22
2022-09-03T04:57:02.314Z,2.50
2022-09-03T04:59:30.704Z,2.30
2022-09-03T05:01:59.189Z,2.78
2022-09-03T05:04:27.921Z,2.47
2022-09-03T05:06:56.283Z,2.40
2022-09-03T05:09:26.245Z,2.28
2022-09-03T05:11:54.604Z,2.55
2022-09-03T05:14:23.129Z,2.67
2022-09-03T05:16:53.008Z,2.53
2022-09-03T05:19:21.791Z,2.53
2022-09-03T05:21:50.286Z,2.72
2022-09-03T05:24:18.774Z,3.00
2022-09-03T05:26:48.902Z,2.50
2022-09-03T05:29:17.329Z,2.70
2022-09-03T05:31:45.680Z,3.08
2022-09-03T05:34:16.693Z,2.35
2022-09-03T05:36:49.876Z,2.63
2022-09-03T05:39:18.329Z,2.97
2022-09-03T05:41:52.273Z,3.30
2022-09-03T05:44:26.700Z,2.80
2022-09-03T05:46:55.096Z,2.92
2022-09-03T05:49:23.679Z,2.85
2022-09-03T05:51:52.001Z,2.65
2022-09-03T05:54:20.384Z,2.75
2022-09-03T05:56:50.092Z,2.90
2022-09-03T05:59:18.886Z,2.90
2022-09-03T06:01:50.929Z,2.53
2022-09-03T06:04:20.922Z,2.63
2022-09-03T06:06:50.039Z,2.63
2022-09-03T06:09:19.367Z,2.63
2022-09-03T06:11:50.220Z,2.15
2022-09-03T06:14:20.127Z,2.78
2022-09-03T06:16:49.994Z,2.80
2022-09-03T06:19:18.793Z,2.40
2022-09-03T06:21:48.038Z,3.25
2022-09-03T06:24:17.627Z,2.97
2022-09-03T06:26:46.576Z,2.53
2022-09-03T06:29:15.638Z,2.80
2022-09-03T06:31:45.395Z,2.67
2022-09-03T06:34:13.808Z,2.30
2022-09-03T06:36:42.378Z,2.28
2022-09-03T06:39:10.779Z,2.20
2022-09-03T06:41:40.140Z,2.75
2022-09-03T06:44:11.853Z,2.40
2022-09-03T06:46:42.776Z,2.80
2022-09-03T06:49:13.678Z,2.40
2022-09-03T06:51:43.407Z,2.30
2022-09-03T06:54:12.839Z,2.30
2022-09-03T06:56:42.198Z,2.40
2022-09-03T06:59:11.259Z,2.20
2022-09-03T07:01:45.326Z,2.17
2022-09-03T07:04:19.387Z,2.45
2022-09-03T07:06:49.618Z,2.60
2022-09-03T07:09:19.173Z,2.58
2022-09-03T07:11:49.432Z,2.42
2022-09-03T07:14:18.892Z,2.20
2022-09-03T07:16:47.738Z,1.90
2022-09-03T07:19:17.589Z,2.22
2022-09-03T07:21:50.131Z,2.28
2022-09-03T07:24:19.411Z,2.10
2022-09-03T07:26:49.409Z,2.40
2022-09-03T07:29:20.356Z,1.80
2022-09-03T07:31:51.448Z,2.22
2022-09-03T07:34:25.225Z,2.33
2022-09-03T07:36:54.277Z,2.33
2022-09-03T07:39:22.906Z,1.92
2022-09-03T07:41:51.328Z,2.00
2022-09-03T07:44:20.683Z,2.00
2022-09-03T07:46:51.331Z,1.60
2022-09-03T07:49:23.908Z,1.60
2022-09-03T07:51:54.240Z,1.75
2022-09-03T07:54:23.933Z,2.20
2022-09-03T07:56:52.592Z,1.70
2022-09-03T07:59:23.109Z,1.33
2022-09-03T08:01:53.089Z,1.30
2022-09-03T08:04:23.098Z,1.70
2022-09-03T08:06:55.760Z,1.60
2022-09-03T08:09:24.599Z,1.50
2022-09-03T08:11:53.504Z,1.63
2022-09-03T08:14:22.144Z,1.90
2022-09-03T08:16:50.592Z,1.80
2022-09-03T08:19:19.401Z,1.80
2022-09-03T08:21:49.279Z,1.70
2022-09-03T08:24:19.783Z,1.80
2022-09-03T08:26:52.212Z,1.83
2022-09-03T08:29:21.130Z,1.80
2022-09-03T08:31:50.378Z,1.67
2022-09-03T08:34:19.183Z,1.52
2022-09-03T08:36:50.432Z,1.67
2022-09-03T08:39:19.161Z,1.90
2022-09-03T08:42:01.087Z,1.70
2022-09-03T08:44:30.991Z,1.70
2022-09-03T08:47:00.944Z,1.52
2022-09-03T08:49:31.573Z,1.60
2022-09-03T08:52:03.700Z,1.75
2022-09-03T08:54:33.023Z,1.60
2022-09-03T08:57:03.104Z,1.98
2022-09-03T08:59:33.279Z,1.65
2022-09-03T09:02:07.194Z,1.50
2022-09-03T09:04:42.307Z,1.92
2022-09-03T09:07:14.195Z,2.00
2022-09-03T09:09:48.946Z,1.60
2022-09-03T09:12:37.615Z,1.50
2022-09-03T09:15:14.868Z,1.67
2022-09-03T09:17:52.453Z,1.70
2022-09-03T09:20:23.437Z,1.80
2022-09-03T09:22:54.802Z,1.80
2022-09-03T09:25:26.313Z,1.60
2022-09-03T09:27:58.306Z,1.60
2022-09-03T09:30:26.926Z,1.52
2022-09-03T09:32:56.243Z,1.70
2022-09-03T09:35:24.953Z,1.60
2022-09-03T09:37:55.950Z,1.90
2022-09-03T09:40:33.077Z,1.70
2022-09-03T09:43:10.907Z,1.58
2022-09-03T09:45:40.796Z,1.63
2022-09-03T09:48:17.541Z,1.70
2022-09-03T09:50:46.302Z,1.58
2022-09-03T09:53:21.615Z,1.58
2022-09-03T09:55:50.900Z,1.60
2022-09-03T09:58:21.196Z,1.50
2022-09-03T10:01:00.395Z,1.80
2022-09-03T10:03:31.305Z,1.70
2022-09-03T10:06:23.227Z,1.65
2022-09-03T10:08:53.008Z,1.80
2022-09-03T10:11:25.467Z,1.80
2022-09-03T10:13:54.813Z,1.80
2022-09-03T10:16:27.524Z,1.67
2022-09-03T10:19:00.162Z,1.80
2022-09-03T10:21:31.662Z,1.75
2022-09-03T10:24:07.207Z,2.00
2022-09-03T10:26:38.473Z,1.80
2022-09-03T10:29:08.948Z,2.03
2022-09-03T10:31:47.527Z,1.80
2022-09-03T10:34:18.627Z,1.83
2022-09-03T10:36:52.350Z,2.03
2022-09-03T10:39:24.985Z,2.10
2022-09-03T10:42:00.119Z,1.90
2022-09-03T10:44:55.445Z,1.80
2022-09-03T10:47:32.223Z,1.83
2022-09-03T10:50:03.998Z,2.10
2022-09-03T10:52:34.416Z,1.75
2022-09-03T10:55:16.274Z,1.88
2022-09-03T10:57:48.855Z,1.90
2022-09-03T11:00:18.977Z,1.75
2022-09-03T11:03:02.277Z,2.17
2022-09-03T11:05:31.919Z,2.00
2022-09-03T11:08:03.349Z,2.05
2022-09-03T11:10:34.556Z,1.90
2022-09-03T11:13:06.970Z,2.08
2022-09-03T11:15:36.903Z,2.45
2022-09-03T11:18:17.767Z,2.10
2022-09-03T11:20:47.524Z,1.80
2022-09-03T11:23:15.984Z,2.17
2022-09-03T11:25:48.733Z,1.80
2022-09-03T11:28:23.103Z,2.00
2022-09-03T11:30:55.128Z,1.70
2022-09-03T11:33:25.323Z,2.45
2022-09-03T11:36:00.249Z,2.08
2022-09-03T11:38:31.214Z,2.00
2022-09-03T11:41:02.591Z,2.20
2022-09-03T11:43:32.937Z,2.33
2022-09-03T11:46:06.024Z,2.20
2022-09-03T11:48:37.094Z,2.25
2022-09-03T11:51:06.168Z,2.15
2022-09-03T11:53:38.631Z,2.47
2022-09-03T11:56:19.657Z,2.10
2022-09-03T11:58:48.238Z,2.40
2022-09-03T12:01:18.283Z,2.03
2022-09-03T12:03:48.615Z,2.42
2022-09-03T12:06:24.771Z,2.60
2022-09-03T12:09:03.139Z,2.10
2022-09-03T12:11:41.879Z,2.72
2022-09-03T12:14:14.667Z,2.08
2022-09-03T12:16:51.771Z,2.10
2022-09-03T12:19:23.454Z,1.90
2022-09-03T12:21:51.982Z,2.10
2022-09-03T12:24:23.350Z,1.80
2022-09-03T12:26:53.132Z,2.00
2022-09-03T12:29:27.603Z,1.88
2022-09-03T12:31:57.510Z,1.90
2022-09-03T12:34:27.409Z,2.15
2022-09-03T12:36:56.464Z,2.00
2022-09-03T12:42:17.932Z,2.30
2022-09-03T12:44:46.299Z,1.90
2022-09-03T12:50:08.389Z,2.30
2022-09-03T12:52:38.367Z,3.10
2022-09-03T12:55:08.472Z,2.35
2022-09-03T12:57:40.151Z,2.38
2022-09-03T13:00:10.065Z,2.22
2022-09-03T13:02:41.710Z,1.77
2022-09-03T13:05:13.430Z,2.38
2022-09-03T13:07:44.927Z,2.55
2022-09-03T13:10:25.206Z,2.05
2022-09-03T13:12:59.950Z,1.98
2022-09-03T13:15:29.223Z,2.30
2022-09-03T13:18:08.720Z,2.38
2022-09-03T13:20:39.422Z,2.17
2022-09-03T13:23:27.255Z,1.95
2022-09-03T13:26:05.836Z,2.20
2022-09-03T13:28:45.401Z,2.22
2022-09-03T13:31:24.098Z,2.50
2022-09-03T13:33:55.682Z,2.72
2022-09-03T13:36:27.302Z,2.38
2022-09-03T13:38:59.030Z,2.30
2022-09-03T13:41:36.671Z,2.45
2022-09-03T13:44:08.820Z,2.47
2022-09-03T13:46:41.299Z,2.40
2022-09-03T13:49:30.232Z,2.38
2022-09-03T13:52:01.227Z,2.25
2022-09-03T13:54:49.402Z,2.10
2022-09-03T13:57:24.319Z,2.10
2022-09-03T13:59:54.964Z,2.10
2022-09-03T14:02:29.059Z,2.15
2022-09-03T14:05:04.111Z,2.58
2022-09-03T14:07:40.920Z,2.40
2022-09-03T14:10:18.532Z,2.28
2022-09-03T14:12:48.304Z,2.00
2022-09-03T14:15:22.115Z,2.20
2022-09-03T14:17:54.372Z,2.40
2022-09-03T14:20:25.402Z,2.25
2022-09-03T14:22:56.208Z,2.17
2022-09-03T14:25:25.757Z,2.35
2022-09-03T14:27:54.677Z,2.20
2022-09-03T14:30:40.113Z,2.42
2022-09-03T14:33:12.348Z,2.50
2022-09-03T14:35:47.670Z,2.30
2022-09-03T14:38:30.870Z,2.42
2022-09-03T14:41:05.064Z,2.38
2022-09-03T14:43:42.734Z,2.47
2022-09-03T14:46:23.212Z,2.60
2022-09-03T14:49:15.393Z,2.28
2022-09-03T14:51:51.545Z,2.42
2022-09-03T14:54:27.807Z,2.53
2022-09-03T14:57:00.442Z,2.50
2022-09-03T14:59:46.660Z,2.50
2022-09-03T15:02:40.590Z,2.67
2022-09-03T15:05:12.775Z,2.40
2022-09-03T15:07:44.643Z,2.50
2022-09-03T15:10:17.976Z,2.10
2022-09-03T15:12:48.392Z,2.58
2022-09-03T15:15:20.148Z,2.70
2022-09-03T15:17:57.525Z,2.40
2022-09-03T15:20:35.716Z,2.30
2022-09-03T15:23:08.448Z,2.22
2022-09-03T15:25:42.294Z,2.42
2022-09-03T15:28:14.486Z,2.45
2022-09-03T15:30:45.423Z,2.50
2022-09-03T15:33:19.329Z,2.53
2022-09-03T15:35:56.701Z,2.50
2022-09-03T15:38:31.208Z,2.55
2022-09-03T15:41:03.324Z,2.55
2022-09-03T15:43:33.890Z,2.60
2022-09-03T15:46:10.769Z,2.88
2022-09-03T15:48:51.890Z,2.50
2022-09-03T15:51:23.225Z,2.88
2022-09-03T15:53:53.853Z,2.38
2022-09-03T15:56:24.767Z,2.42
2022-09-03T15:58:57.743Z,2.60
2022-09-03T16:01:32.349Z,2.60
2022-09-03T16:04:09.772Z,2.95
2022-09-03T16:06:45.221Z,2.30
2022-09-03T16:09:22.211Z,2.72
2022-09-03T16:11:54.368Z,2.50
2022-09-03T16:14:25.584Z,2.40
2022-09-03T16:16:59.327Z,2.42
2022-09-03T16:19:31.938Z,2.38
2022-09-03T16:22:01.572Z,2.78
2022-09-03T16:24:34.908Z,2.40
2022-09-03T16:27:06.628Z,2.70
2022-09-03T16:29:35.144Z,2.55
2022-09-03T16:32:09.905Z,2.72
2022-09-03T16:34:45.814Z,2.90
2022-09-03T16:37:20.747Z,2.60
2022-09-03T16:39:55.036Z,2.53
2022-09-03T16:42:27.844Z,2.97
2022-09-03T16:45:08.923Z,3.13
2022-09-03T16:47:43.438Z,3.30
2022-09-03T16:50:20.200Z,3.20
2022-09-03T16:52:59.372Z,3.47
2022-09-03T16:55:34.263Z,3.13
2022-09-03T16:58:09.971Z,3.30
2022-09-03T17:00:46.145Z,3.17
2022-09-03T17:03:42.610Z,3.17
2022-09-03T17:06:38.113Z,2.80
2022-09-03T17:09:14.807Z,2.88
2022-09-03T17:11:49.168Z,2.70
2022-09-03T17:14:40.843Z,2.70
2022-09-03T17:17:14.818Z,2.60
2022-09-03T17:19:47.727Z,2.45
2022-09-03T17:22:22.791Z,2.28
2022-09-03T17:25:01.627Z,2.15
2022-09-03T17:27:54.247Z,2.58
2022-09-03T18:38:13.869Z,2.70
2022-09-03T18:41:04.174Z,2.70
2022-09-03T18:43:54.117Z,2.58
2022-09-03T18:48:01.011Z,3.15
2022-09-03T18:49:54.371Z,2.55
2022-09-03T18:52:46.026Z,3.00
2022-09-03T18:57:53.526Z,3.08
2022-09-03T19:00:39.673Z,2.60
2022-09-03T19:03:35.971Z,3.10
2022-09-03T19:06:25.940Z,2.47
2022-09-03T19:09:16.711Z,2.92
2022-09-03T19:12:10.253Z,3.08
2022-09-03T19:15:01.951Z,2.45
2022-09-03T19:17:53.564Z,2.85
2022-09-03T19:20:41.725Z,2.58
2022-09-03T19:23:28.299Z,2.55
2022-09-03T19:26:19.395Z,2.60
2022-09-03T19:29:06.827Z,2.58
2022-09-03T19:32:01.110Z,2.80
2022-09-03T19:34:56.560Z,2.58
2022-09-03T19:37:45.062Z,2.92
2022-09-03T19:40:38.836Z,2.92
2022-09-03T19:43:31.589Z,2.60
2022-09-03T19:46:23.563Z,2.72
2022-09-03T19:49:19.603Z,2.75
2022-09-03T19:52:12.943Z,2.92
2022-09-03T19:54:59.822Z,2.85
2022-09-03T19:57:48.386Z,2.97
2022-09-03T20:00:35.121Z,3.20
2022-09-03T20:03:21.668Z,3.10
2022-09-03T20:06:11.404Z,3.13
2022-09-03T20:08:57.813Z,3.00
2022-09-03T20:11:28.426Z,3.05
2022-09-03T20:14:16.849Z,3.67
2022-09-03T20:17:04.953Z,3.33
2022-09-03T20:19:37.074Z,3.28
2022-09-03T20:22:10.791Z,3.13
2022-09-03T20:24:46.671Z,3.35
2022-09-03T20:27:22.087Z,3.00
2022-09-03T20:29:56.681Z,3.08
2022-09-03T20:32:40.767Z,3.25
2022-09-03T20:35:12.008Z,3.15
2022-09-03T20:37:43.745Z,3.00
2022-09-03T20:40:18.926Z,3.25
2022-09-03T20:42:53.623Z,3.30
2022-09-03T20:45:24.731Z,3.30
2022-09-03T20:48:01.821Z,2.55
2022-09-03T20:50:43.827Z,2.60
2022-09-03T20:53:21.251Z,2.63
2022-09-03T20:55:52.959Z,2.30
2022-09-03T20:58:24.588Z,2.50
2022-09-03T21:00:58.245Z,2.53
2022-09-03T21:03:32.281Z,3.28
2022-09-03T21:06:10.274Z,2.70
2022-09-03T21:09:02.626Z,2.50
2022-09-03T21:11:35.039Z,2.35
2022-09-03T21:14:09.929Z,2.55
2022-09-03T21:16:39.967Z,2.25
2022-09-03T21:19:14.296Z,2.25
2022-09-03T21:21:50.399Z,2.63
2022-09-03T21:24:22.013Z,2.72
2022-09-03T21:26:53.451Z,2.60
2022-09-03T21:29:25.548Z,2.53
2022-09-03T21:31:56.998Z,2.83
2022-09-03T21:34:29.970Z,2.25
2022-09-03T21:36:58.976Z,2.75
2022-09-03T21:39:30.220Z,2.45
2022-09-03T21:42:02.288Z,2.50
2022-09-03T21:44:42.598Z,2.45
2022-09-03T21:47:19.306Z,2.85
2022-09-03T21:49:56.496Z,2.60
2022-09-03T21:52:28.902Z,2.72
2022-09-03T21:54:58.696Z,2.50
2022-09-03T21:57:31.829Z,2.42
2022-09-03T22:00:04.417Z,2.60
2022-09-03T22:02:34.276Z,2.60
2022-09-03T22:05:04.155Z,2.45
2022-09-03T22:07:53.326Z,2.33
2022-09-03T22:10:26.705Z,2.72
2022-09-03T22:12:58.753Z,2.70
2022-09-03T22:15:27.885Z,2.83
2022-09-03T22:17:59.025Z,2.97
2022-09-03T22:20:27.898Z,2.78
2022-09-03T22:22:57.800Z,2.30
2022-09-03T22:25:31.462Z,2.35
2022-09-03T22:28:03.285Z,2.60
2022-09-03T22:30:33.553Z,2.95
2022-09-03T22:33:04.695Z,2.90
2022-09-03T22:35:44.838Z,2.75
2022-09-03T22:38:31.961Z,2.92
2022-09-03T22:41:04.699Z,2.83
2022-09-03T22:43:38.807Z,2.58
2022-09-03T22:46:09.468Z,2.67
2022-09-03T22:48:42.803Z,3.10
2022-09-03T22:51:12.833Z,3.17
2022-09-03T22:53:48.351Z,3.28
2022-09-03T22:56:21.931Z,2.78
2022-09-03T22:58:54.457Z,3.08
2022-09-03T23:01:24.235Z,3.10
2022-09-03T23:03:55.304Z,2.70
2022-09-03T23:06:26.497Z,3.55
2022-09-03T23:08:58.490Z,3.17
2022-09-03T23:11:29.681Z,3.30
2022-09-03T23:14:00.495Z,2.80
2022-09-03T23:16:32.517Z,3.22
2022-09-03T23:19:03.557Z,3.08
2022-09-03T23:21:39.162Z,3.00
2022-09-03T23:24:09.367Z,3.42
2022-09-03T23:26:40.832Z,3.20
2022-09-03T23:29:13.051Z,4.13
2022-09-03T23:31:41.559Z,3.58
2022-09-03T23:34:10.774Z,3.78
2022-09-03T23:37:05.895Z,3.70
2022-09-03T23:39:44.286Z,3.78
2022-09-03T23:42:18.608Z,4.00
2022-09-03T23:44:54.620Z,3.78
2022-09-03T23:47:25.949Z,3.65
2022-09-03T23:49:59.132Z,3.45
2022-09-03T23:52:37.275Z,3.72
2022-09-03T23:55:10.991Z,3.25
2022-09-03T23:57:41.875Z,3.50
